createdAt,value
2023-03-12T00:02:22.883Z,9.18
2023-03-12T00:04:49.815Z,6.13
2023-03-12T00:07:16.552Z,3.00
2023-03-12T00:09:43.310Z,6.93
2023-03-12T00:12:10.042Z,3.28
2023-03-12T00:14:36.772Z,5.40
2023-03-12T00:17:03.590Z,2.78
2023-03-12T00:19:30.406Z,3.00
2023-03-12T00:21:57.310Z,4.68
2023-03-12T00:24:24.167Z,4.97
2023-03-12T00:26:50.939Z,2.13
2023-03-12T00:29:17.782Z,2.92
2023-03-12T00:31:44.679Z,4.53
2023-03-12T00:34:11.730Z,2.85
2023-03-12T00:36:40.197Z,4.45
2023-03-12T00:39:07.574Z,9.73
2023-03-12T00:41:34.564Z,5.22
2023-03-12T00:44:01.377Z,3.83
2023-03-12T00:46:28.430Z,3.67
2023-03-12T00:48:55.450Z,4.32
2023-03-12T00:51:22.524Z,5.93
2023-03-12T00:53:49.402Z,5.70
2023-03-12T00:56:16.368Z,8.40
2023-03-12T00:58:43.244Z,4.10
2023-03-12T01:01:10.938Z,3.80
2023-03-12T01:03:38.657Z,4.30
2023-03-12T01:06:06.292Z,8.23
2023-03-12T01:08:33.801Z,6.13
2023-03-12T01:11:00.728Z,2.83
2023-03-12T01:13:27.799Z,5.25
2023-03-12T01:15:54.853Z,3.60
2023-03-12T01:18:21.824Z,2.47
2023-03-12T01:20:48.635Z,6.40
2023-03-12T01:23:16.216Z,2.70
2023-03-12T01:25:43.382Z,4.03
2023-03-12T01:28:10.261Z,7.80
2023-03-12T01:30:37.103Z,3.30
2023-03-12T01:33:04.466Z,11.07
2023-03-12T01:35:36.366Z,4.97
2023-03-12T01:38:03.335Z,3.53
2023-03-12T01:40:33.918Z,3.38
2023-03-12T01:43:26.018Z,8.07
2023-03-12T01:46:07.460Z,4.70
2023-03-12T01:48:45.676Z,5.70
2023-03-12T01:51:16.054Z,6.13
2023-03-12T01:53:47.312Z,4.88
2023-03-12T01:56:17.332Z,2.67
2023-03-12T01:58:50.668Z,4.50
2023-03-12T02:01:18.618Z,4.20
2023-03-12T02:03:47.718Z,4.05
2023-03-12T02:06:16.106Z,9.13
2023-03-12T02:08:45.700Z,4.32
2023-03-12T02:11:13.476Z,2.97
2023-03-12T02:13:40.989Z,8.73
2023-03-12T02:16:08.784Z,6.15
2023-03-12T02:18:35.903Z,3.50
2023-03-12T02:21:22.957Z,8.50
2023-03-12T02:23:55.503Z,7.88
2023-03-12T02:26:24.405Z,5.43
2023-03-12T02:28:52.949Z,5.88
2023-03-12T02:31:23.839Z,4.55
2023-03-12T02:33:52.728Z,2.80
2023-03-12T02:36:20.535Z,4.18
2023-03-12T02:38:51.429Z,2.63
2023-03-12T02:41:22.376Z,3.20
2023-03-12T02:44:05.179Z,4.60
2023-03-12T02:46:41.419Z,2.38
2023-03-12T02:49:09.294Z,2.55
2023-03-12T02:51:35.997Z,8.73
2023-03-12T02:54:02.715Z,1.52
2023-03-12T02:56:30.170Z,5.65
2023-03-12T02:58:57.751Z,3.08
2023-03-12T03:01:26.799Z,2.78
2023-03-12T03:03:54.780Z,5.53
2023-03-12T03:06:22.834Z,2.40
2023-03-12T03:08:49.644Z,6.38
2023-03-12T03:11:16.567Z,2.50
2023-03-12T03:13:43.387Z,1.45
2023-03-12T03:16:12.276Z,1.55
2023-03-12T03:18:39.021Z,4.93
2023-03-12T03:21:07.862Z,3.90
2023-03-12T03:23:36.581Z,6.35
2023-03-12T03:26:03.699Z,3.05
2023-03-12T03:28:31.136Z,3.95
2023-03-12T03:31:01.690Z,1.52
2023-03-12T03:33:35.366Z,3.75
2023-03-12T03:36:03.692Z,2.75
2023-03-12T03:38:35.097Z,4.10
2023-03-12T03:41:03.888Z,2.10
2023-03-12T03:43:33.182Z,8.75
2023-03-12T03:46:05.555Z,3.15
2023-03-12T03:48:35.837Z,3.50
2023-03-12T03:51:04.727Z,1.45
2023-03-12T03:53:34.524Z,6.85
2023-03-12T03:56:09.049Z,4.45
2023-03-12T03:58:40.452Z,1.33
2023-03-12T04:01:07.556Z,5.18
2023-03-12T04:03:35.512Z,1.05
2023-03-12T04:06:05.960Z,2.60
2023-03-12T04:08:35.499Z,4.68
2023-03-12T04:11:12.306Z,4.97
2023-03-12T04:13:39.588Z,2.63
2023-03-12T04:16:08.281Z,1.27
2023-03-12T04:18:36.211Z,2.05
2023-03-12T04:21:05.075Z,2.78
2023-03-12T04:23:32.397Z,7.68
2023-03-12T04:25:59.541Z,3.13
2023-03-12T04:28:28.881Z,1.33
2023-03-12T04:30:59.611Z,6.45
2023-03-12T04:33:28.612Z,4.68
2023-03-12T04:35:56.546Z,2.22
2023-03-12T04:38:24.954Z,1.88
2023-03-12T04:41:01.259Z,1.35
2023-03-12T04:43:29.580Z,2.78
2023-03-12T04:45:57.187Z,2.08
2023-03-12T04:48:24.403Z,2.95
2023-03-12T04:50:52.884Z,4.45
2023-03-12T04:53:21.385Z,2.70
2023-03-12T04:55:51.500Z,8.02
2023-03-12T04:58:19.307Z,1.38
2023-03-12T05:00:48.222Z,2.10
2023-03-12T05:03:15.519Z,1.70
2023-03-12T05:05:42.868Z,4.57
2023-03-12T05:08:10.506Z,3.30
2023-03-12T05:10:38.159Z,2.65
2023-03-12T05:13:05.162Z,2.30
2023-03-12T05:15:31.997Z,1.25
2023-03-12T05:17:58.754Z,3.90
2023-03-12T05:20:25.530Z,5.38
2023-03-12T05:22:52.420Z,14.20
2023-03-12T05:25:19.366Z,1.63
2023-03-12T05:27:46.193Z,1.20
2023-03-12T05:30:13.499Z,3.72
2023-03-12T05:32:40.704Z,2.78
2023-03-12T05:35:07.885Z,4.38
2023-03-12T05:37:34.738Z,5.82
2023-03-12T05:40:01.654Z,4.57
2023-03-12T05:42:29.384Z,3.30
2023-03-12T05:44:59.227Z,3.03
2023-03-12T05:47:26.723Z,3.30
2023-03-12T05:49:53.536Z,3.75
2023-03-12T05:52:20.608Z,3.35
2023-03-12T05:54:47.873Z,4.10
2023-03-12T05:57:14.643Z,3.30
2023-03-12T05:59:41.457Z,3.15
2023-03-12T06:02:09.132Z,2.60
2023-03-12T06:04:36.603Z,2.70
2023-03-12T06:07:03.541Z,8.98
2023-03-12T06:09:31.238Z,3.33
2023-03-12T06:11:58.266Z,4.70
2023-03-12T06:14:25.595Z,2.50
2023-03-12T06:16:52.456Z,2.92
2023-03-12T06:19:19.359Z,3.78
2023-03-12T06:21:48.812Z,9.05
2023-03-12T06:24:15.712Z,3.17
2023-03-12T06:26:46.236Z,6.10
2023-03-12T06:29:13.073Z,3.60
2023-03-12T06:31:41.969Z,5.13
2023-03-12T06:34:10.156Z,4.20
2023-03-12T06:36:37.191Z,6.68
2023-03-12T06:39:08.464Z,3.58
2023-03-12T06:41:36.214Z,6.38
2023-03-12T06:44:05.976Z,6.57
2023-03-12T06:46:33.452Z,6.18
2023-03-12T06:49:00.259Z,4.38
2023-03-12T06:51:27.030Z,4.18
2023-03-12T06:53:53.859Z,5.93
2023-03-12T06:56:20.680Z,6.80
2023-03-12T06:58:47.352Z,7.65
2023-03-12T07:01:14.167Z,5.22
2023-03-12T07:03:40.981Z,5.28
2023-03-12T07:06:18.833Z,8.43
2023-03-12T07:08:46.271Z,9.35
2023-03-12T07:11:14.031Z,9.23
2023-03-12T07:13:41.856Z,4.95
2023-03-12T07:16:08.942Z,8.68
2023-03-12T07:18:35.733Z,6.03
2023-03-12T07:21:02.886Z,13.20
2023-03-12T07:23:29.673Z,8.38
2023-03-12T07:25:56.443Z,8.98
2023-03-12T07:28:23.312Z,10.13
2023-03-12T07:30:50.657Z,9.00
2023-03-12T07:33:19.998Z,9.88
2023-03-12T07:35:50.224Z,8.63
2023-03-12T07:38:18.667Z,7.07
2023-03-12T07:40:50.252Z,21.10
2023-03-12T07:43:19.646Z,9.05
2023-03-12T07:45:48.119Z,12.55
2023-03-12T07:48:15.117Z,13.05
2023-03-12T07:50:41.929Z,12.00
2023-03-12T07:53:08.708Z,13.98
2023-03-12T07:55:35.472Z,8.82
2023-03-12T07:58:02.754Z,12.02
2023-03-12T08:00:30.753Z,9.70
2023-03-12T08:02:58.123Z,10.77
2023-03-12T08:05:25.104Z,12.93
2023-03-12T08:07:52.546Z,9.65
2023-03-12T08:10:21.097Z,10.43
2023-03-12T08:12:48.277Z,15.55
2023-03-12T08:15:15.934Z,10.27
2023-03-12T08:17:42.755Z,10.38
2023-03-12T08:20:10.196Z,17.35
2023-03-12T08:22:37.540Z,16.65
2023-03-12T08:25:05.270Z,13.95
2023-03-12T08:27:32.631Z,14.35
2023-03-12T08:29:59.530Z,12.07
2023-03-12T08:32:26.837Z,19.70
2023-03-12T08:34:53.639Z,16.30
2023-03-12T08:37:20.433Z,15.80
2023-03-12T08:39:47.222Z,20.27
2023-03-12T08:42:13.945Z,16.20
2023-03-12T08:44:40.704Z,23.52
2023-03-12T08:47:07.440Z,18.67
2023-03-12T08:49:34.216Z,12.10
2023-03-12T08:52:01.057Z,19.60
2023-03-12T08:54:27.747Z,16.13
2023-03-12T08:56:54.535Z,16.73
2023-03-12T08:59:22.306Z,17.75
2023-03-12T09:01:49.370Z,23.88
2023-03-12T09:04:16.755Z,27.80
2023-03-12T09:06:43.623Z,14.45
2023-03-12T09:09:10.403Z,15.80
2023-03-12T09:11:39.812Z,29.98
2023-03-12T09:16:53.715Z,22.00
2023-03-12T09:19:21.019Z,18.60
2023-03-12T09:21:47.838Z,19.60
2023-03-12T09:24:14.580Z,17.95
2023-03-12T09:26:41.459Z,23.85
2023-03-12T09:29:08.238Z,24.70
2023-03-12T09:31:36.285Z,14.85
2023-03-12T09:34:04.586Z,13.70
2023-03-12T09:36:31.662Z,18.67
2023-03-12T09:38:58.531Z,6.80
2023-03-12T09:41:36.498Z,16.33
2023-03-12T09:44:18.051Z,15.73
2023-03-12T09:46:52.313Z,15.57
2023-03-12T09:49:34.674Z,16.25
2023-03-12T09:52:07.871Z,12.93
2023-03-12T09:54:53.384Z,16.10
2023-03-12T09:57:26.333Z,12.65
2023-03-12T09:59:53.524Z,12.48
2023-03-12T10:02:44.644Z,13.40
2023-03-12T10:05:19.738Z,16.63
2023-03-12T10:08:07.550Z,21.25
2023-03-12T10:10:54.994Z,20.95
2023-03-12T10:13:37.812Z,9.13
2023-03-12T10:16:25.968Z,10.30
2023-03-12T10:19:17.249Z,11.82
2023-03-12T10:21:55.994Z,21.90
2023-03-12T10:24:29.131Z,21.92
2023-03-12T10:26:58.470Z,15.30
2023-03-12T10:29:36.094Z,19.85
2023-03-12T10:32:07.823Z,16.38
2023-03-12T10:34:59.801Z,14.18
2023-03-12T10:37:48.252Z,22.80
2023-03-12T10:40:23.260Z,26.15
2023-03-12T10:42:50.286Z,14.27
2023-03-12T10:45:50.241Z,18.90
2023-03-12T10:48:23.529Z,24.13
2023-03-12T10:51:04.164Z,13.05
2023-03-12T10:53:44.660Z,18.83
2023-03-12T10:56:17.453Z,10.73
2023-03-12T10:58:48.440Z,19.88
2023-03-12T11:01:15.326Z,18.17
2023-03-12T11:03:43.370Z,18.38
2023-03-12T11:06:19.581Z,12.77
2023-03-12T11:09:16.968Z,16.13
2023-03-12T11:11:48.498Z,15.80
2023-03-12T11:14:19.978Z,20.83
2023-03-12T11:16:47.105Z,14.80
2023-03-12T11:19:29.204Z,19.08
2023-03-12T11:22:02.075Z,15.80
2023-03-12T11:24:30.027Z,13.48
2023-03-12T11:27:05.861Z,19.13
2023-03-12T11:29:39.812Z,29.83
2023-03-12T11:32:19.648Z,23.05
2023-03-12T11:34:49.939Z,8.93
2023-03-12T11:37:40.279Z,9.77
2023-03-12T11:40:28.259Z,20.25
2023-03-12T11:42:54.970Z,8.73
2023-03-12T11:45:43.019Z,9.43
2023-03-12T11:48:24.162Z,11.38
2023-03-12T11:50:50.927Z,11.40
2023-03-12T11:53:35.315Z,15.27
2023-03-12T11:56:26.936Z,13.88
2023-03-12T11:59:21.288Z,10.88
2023-03-12T12:02:13.762Z,16.95
2023-03-12T12:05:02.257Z,20.63
2023-03-12T12:07:51.315Z,24.08
2023-03-12T12:10:30.199Z,18.63
2023-03-12T12:13:02.920Z,8.45
2023-03-12T12:16:02.048Z,20.45
2023-03-12T12:18:47.095Z,6.55
2023-03-12T12:21:52.869Z,15.68
2023-03-12T12:24:31.847Z,17.15
2023-03-12T12:27:14.588Z,14.20
2023-03-12T12:30:13.510Z,15.40
2023-03-12T12:33:16.358Z,20.63
2023-03-12T12:35:43.822Z,14.07
2023-03-12T12:38:32.691Z,13.68
2023-03-12T12:41:17.601Z,19.73
2023-03-12T12:43:51.005Z,9.02
2023-03-12T12:46:22.087Z,17.67
2023-03-12T12:49:06.569Z,11.18
2023-03-12T12:51:40.625Z,16.67
2023-03-12T12:54:35.309Z,6.88
2023-03-12T12:57:12.915Z,12.25
2023-03-12T13:00:11.420Z,14.95
2023-03-12T13:02:44.571Z,12.98
2023-03-12T13:05:25.598Z,16.40
2023-03-12T13:07:53.194Z,20.40
2023-03-12T13:10:35.234Z,17.10
2023-03-12T13:13:12.609Z,11.05
2023-03-12T13:15:43.685Z,11.65
2023-03-12T13:18:26.307Z,16.13
2023-03-12T13:20:53.048Z,15.18
2023-03-12T13:23:41.271Z,8.00
2023-03-12T13:26:30.209Z,10.25
2023-03-12T13:29:11.860Z,11.65
2023-03-12T13:31:41.863Z,18.00
2023-03-12T13:34:17.866Z,8.57
2023-03-12T13:36:59.517Z,12.05
2023-03-12T13:39:33.446Z,12.50
2023-03-12T13:42:02.412Z,16.88
2023-03-12T13:44:29.037Z,10.65
2023-03-12T13:47:11.234Z,12.98
2023-03-12T13:49:43.367Z,7.93
2023-03-12T13:52:22.447Z,19.45
2023-03-12T13:55:07.306Z,14.38
2023-03-12T13:57:43.971Z,19.42
2023-03-12T14:00:33.330Z,10.77
2023-03-12T14:03:15.813Z,14.85
2023-03-12T14:05:53.314Z,8.45
2023-03-12T14:08:55.614Z,9.90
2023-03-12T14:11:34.645Z,13.15
2023-03-12T14:14:20.724Z,13.00
2023-03-12T14:16:50.480Z,13.15
2023-03-12T14:19:21.400Z,14.38
2023-03-12T14:22:04.842Z,8.27
2023-03-12T14:24:51.591Z,16.50
2023-03-12T14:27:23.922Z,11.90
2023-03-12T14:29:58.835Z,10.05
2023-03-12T14:32:31.140Z,10.43
2023-03-12T14:35:19.684Z,22.48
2023-03-12T14:38:04.897Z,9.95
2023-03-12T14:40:46.901Z,7.93
2023-03-12T14:43:47.325Z,10.13
2023-03-12T14:46:21.414Z,17.17
2023-03-12T14:51:28.414Z,9.75
2023-03-12T14:53:56.748Z,8.77
2023-03-12T14:56:33.269Z,11.98
2023-03-12T14:59:21.404Z,22.02
2023-03-12T15:01:48.704Z,15.77
2023-03-12T15:04:22.979Z,13.60
2023-03-12T15:06:56.722Z,21.08
2023-03-12T15:09:29.525Z,17.17
2023-03-12T15:12:02.903Z,17.13
2023-03-12T15:14:35.058Z,7.38
2023-03-12T15:17:04.793Z,12.93
2023-03-12T15:19:36.467Z,11.68
2023-03-12T15:22:04.606Z,13.48
2023-03-12T15:24:38.639Z,12.95
2023-03-12T15:27:28.744Z,19.17
2023-03-12T15:29:58.303Z,17.08
2023-03-12T15:32:26.816Z,9.20
2023-03-12T15:34:58.089Z,9.30
2023-03-12T15:37:41.024Z,25.10
2023-03-12T15:40:21.021Z,8.82
2023-03-12T15:42:48.557Z,14.15
2023-03-12T15:45:20.486Z,18.48
2023-03-12T15:47:48.182Z,9.80
2023-03-12T15:50:43.061Z,14.65
2023-03-12T15:53:32.240Z,16.33
2023-03-12T15:56:24.944Z,10.85
2023-03-12T15:59:20.514Z,13.50
2023-03-12T16:02:00.283Z,19.70
2023-03-12T16:04:28.151Z,16.83
2023-03-12T16:06:55.241Z,4.15
2023-03-12T16:09:24.808Z,16.55
2023-03-12T16:11:53.544Z,11.05
2023-03-12T16:14:24.628Z,16.00
2023-03-12T16:16:51.535Z,22.58
2023-03-12T16:19:21.061Z,13.48
2023-03-12T16:21:49.903Z,18.33
2023-03-12T16:24:16.901Z,9.70
2023-03-12T16:26:47.672Z,14.95
2023-03-12T16:29:17.064Z,9.93
2023-03-12T16:31:44.350Z,15.27
2023-03-12T16:34:12.415Z,10.45
2023-03-12T16:36:39.402Z,19.10
2023-03-12T16:39:06.117Z,22.88
2023-03-12T16:41:33.016Z,10.30
2023-03-12T16:44:00.626Z,10.57
2023-03-12T16:46:31.481Z,14.65
2023-03-12T16:48:59.490Z,20.98
2023-03-12T16:51:28.364Z,24.52
2023-03-12T16:54:08.419Z,17.83
2023-03-12T16:56:37.696Z,9.77
2023-03-12T16:59:08.355Z,5.47
2023-03-12T17:01:36.222Z,17.27
2023-03-12T17:04:04.906Z,12.38
2023-03-12T17:06:32.759Z,14.65
2023-03-12T17:08:59.738Z,31.10
2023-03-12T17:11:30.169Z,18.85
2023-03-12T17:14:01.130Z,19.13
2023-03-12T17:16:28.119Z,17.58
2023-03-12T17:18:55.793Z,17.55
2023-03-12T17:21:23.346Z,9.65
2023-03-12T17:23:50.583Z,20.85
2023-03-12T17:26:18.361Z,13.10
2023-03-12T17:28:45.496Z,21.33
2023-03-12T17:31:12.303Z,11.20
2023-03-12T17:33:39.674Z,16.88
2023-03-12T17:36:09.503Z,14.45
2023-03-12T17:38:39.709Z,15.23
2023-03-12T17:41:23.490Z,9.82
2023-03-12T17:43:52.853Z,15.77
2023-03-12T17:46:19.674Z,18.50
2023-03-12T17:48:47.527Z,12.15
2023-03-12T17:51:14.261Z,26.48
2023-03-12T17:53:41.702Z,11.82
2023-03-12T17:56:11.134Z,8.05
2023-03-12T17:58:38.459Z,21.85
2023-03-12T18:01:05.436Z,25.88
2023-03-12T18:03:32.236Z,11.85
2023-03-12T18:05:58.979Z,13.25
2023-03-12T18:08:25.786Z,20.85
2023-03-12T18:10:52.608Z,13.40
2023-03-12T18:13:19.849Z,19.52
2023-03-12T18:15:53.848Z,11.35
2023-03-12T18:18:21.417Z,16.20
2023-03-12T18:20:49.111Z,11.75
2023-03-12T18:23:16.584Z,13.55
2023-03-12T18:25:43.771Z,14.13
2023-03-12T18:28:10.524Z,13.43
2023-03-12T18:30:37.279Z,14.23
2023-03-12T18:33:04.020Z,7.60
2023-03-12T18:35:30.830Z,26.13
2023-03-12T18:37:58.334Z,17.20
2023-03-12T18:40:27.506Z,19.90
2023-03-12T18:42:57.584Z,19.42
2023-03-12T18:45:24.343Z,25.70
2023-03-12T18:47:51.196Z,14.88
2023-03-12T18:50:18.366Z,12.27
2023-03-12T18:52:45.129Z,15.60
2023-03-12T18:55:15.249Z,15.82
2023-03-12T18:57:43.043Z,17.88
2023-03-12T19:00:17.089Z,19.60
2023-03-12T19:02:47.686Z,13.73
2023-03-12T19:05:16.673Z,21.27
2023-03-12T19:07:44.188Z,14.18
2023-03-12T19:10:12.276Z,12.20
2023-03-12T19:12:51.728Z,20.33
2023-03-12T19:15:19.517Z,14.18
2023-03-12T19:17:46.321Z,25.20
2023-03-12T19:20:13.986Z,26.63
2023-03-12T19:22:40.936Z,20.42
2023-03-12T19:25:08.123Z,14.05
2023-03-12T19:27:34.999Z,18.35
2023-03-12T19:30:02.038Z,17.52
2023-03-12T19:32:42.075Z,15.88
2023-03-12T19:35:12.114Z,16.23
2023-03-12T19:37:38.874Z,13.02
2023-03-12T19:40:31.480Z,24.92
2023-03-12T19:42:58.631Z,27.20
2023-03-12T19:45:25.734Z,16.27
2023-03-12T19:47:52.586Z,17.58
2023-03-12T19:50:23.372Z,11.95
2023-03-12T19:52:50.225Z,21.45
2023-03-12T19:55:16.989Z,11.48
2023-03-12T19:57:43.867Z,25.77
2023-03-12T20:00:12.160Z,13.20
2023-03-12T20:02:39.734Z,13.90
2023-03-12T20:05:07.876Z,14.10
2023-03-12T20:07:36.229Z,12.98
2023-03-12T20:10:03.244Z,17.45
2023-03-12T20:12:29.996Z,12.45
2023-03-12T20:14:57.130Z,16.40
2023-03-12T20:17:24.104Z,15.75
2023-03-12T20:19:50.918Z,11.02
2023-03-12T20:22:17.694Z,17.60
2023-03-12T20:24:44.676Z,14.07
2023-03-12T20:27:11.511Z,17.45
2023-03-12T20:29:38.358Z,12.82
2023-03-12T20:32:05.356Z,11.23
2023-03-12T20:34:32.196Z,7.60
2023-03-12T20:36:59.042Z,15.82
2023-03-12T20:39:25.910Z,15.85
2023-03-12T20:41:52.673Z,12.40
2023-03-12T20:44:19.396Z,4.05
2023-03-12T20:46:47.004Z,19.40
2023-03-12T20:49:14.303Z,14.27
2023-03-12T20:51:42.773Z,4.60
2023-03-12T20:54:10.489Z,13.48
2023-03-12T20:56:39.022Z,5.93
2023-03-12T20:59:05.824Z,7.57
2023-03-12T21:01:32.711Z,10.68
2023-03-12T21:03:59.497Z,9.63
2023-03-12T21:06:26.819Z,15.55
2023-03-12T21:08:56.242Z,6.80
2023-03-12T21:11:23.051Z,13.10
2023-03-12T21:13:50.030Z,10.10
2023-03-12T21:16:16.733Z,14.88
2023-03-12T21:18:43.919Z,11.18
2023-03-12T21:21:11.094Z,4.93
2023-03-12T21:23:38.793Z,5.05
2023-03-12T21:26:09.404Z,6.95
2023-03-12T21:28:36.781Z,5.45
2023-03-12T21:31:08.729Z,12.18
2023-03-12T21:33:35.878Z,5.55
2023-03-12T21:36:07.521Z,4.95
2023-03-12T21:38:38.850Z,9.20
2023-03-12T21:41:07.130Z,12.60
2023-03-12T21:43:34.144Z,6.00
2023-03-12T21:46:12.719Z,7.82
2023-03-12T21:48:39.839Z,6.88
2023-03-12T21:51:09.739Z,12.55
2023-03-12T21:53:37.040Z,7.70
2023-03-12T21:56:05.557Z,4.25
2023-03-12T21:58:33.487Z,10.20
2023-03-12T22:01:12.032Z,2.58
2023-03-12T22:03:39.981Z,2.03
2023-03-12T22:06:07.354Z,10.55
2023-03-12T22:08:34.462Z,11.13
2023-03-12T22:11:01.668Z,3.97
2023-03-12T22:13:28.813Z,11.32
2023-03-12T22:15:59.797Z,8.25
2023-03-12T22:18:27.752Z,11.15
2023-03-12T22:21:01.154Z,8.05
2023-03-12T22:23:28.248Z,2.65
2023-03-12T22:25:55.723Z,12.18
2023-03-12T22:28:25.682Z,6.50
2023-03-12T22:30:58.506Z,6.68
2023-03-12T22:33:25.664Z,2.58
2023-03-12T22:35:52.942Z,3.50
2023-03-12T22:38:20.042Z,2.75
2023-03-12T22:40:47.739Z,12.90
2023-03-12T22:43:14.680Z,10.30
2023-03-12T22:45:41.879Z,23.75
2023-03-12T22:48:09.656Z,6.32
2023-03-12T22:50:36.484Z,9.02
2023-03-12T22:53:06.799Z,16.77
2023-03-12T22:55:34.614Z,4.07
2023-03-12T22:58:01.333Z,9.45
2023-03-12T23:00:28.247Z,5.72
2023-03-12T23:02:55.119Z,10.35
2023-03-12T23:05:21.941Z,10.05
2023-03-12T23:07:48.989Z,6.18
2023-03-12T23:10:15.902Z,16.20
2023-03-12T23:12:42.707Z,8.25
2023-03-12T23:15:09.888Z,9.45
2023-03-12T23:17:37.060Z,6.03
2023-03-12T23:20:05.319Z,13.10
2023-03-12T23:22:33.399Z,6.65
2023-03-12T23:25:00.415Z,15.30
2023-03-12T23:27:27.091Z,11.18
2023-03-12T23:29:53.914Z,20.25
2023-03-12T23:32:20.705Z,13.93
2023-03-12T23:34:47.508Z,3.80
2023-03-12T23:37:14.358Z,10.85
2023-03-12T23:39:53.490Z,12.90
2023-03-12T23:42:21.038Z,9.00
2023-03-12T23:44:47.679Z,13.15
2023-03-12T23:47:14.427Z,11.52
2023-03-12T23:49:41.273Z,8.07
2023-03-12T23:52:08.009Z,12.55
2023-03-12T23:54:35.849Z,10.02
2023-03-12T23:57:02.572Z,8.73
2023-03-12T23:59:29.385Z,9.65
